sensor_id;sensor_type;location;lat;lon;timestamp;P1;durP1;ratioP1;P2;durP2;ratioP2
16504;SDS011;8365;51.030;4.696;2023-12-07T00:00:48;80.83;;;21.87;;
16504;SDS011;8365;51.030;4.696;2023-12-07T00:03:19;63.10;;;19.47;;
16504;SDS011;8365;51.030;4.696;2023-12-07T00:05:51;56.53;;;19.53;;
16504;SDS011;8365;51.030;4.696;2023-12-07T00:08:22;70.03;;;20.33;;
16504;SDS011;8365;51.030;4.696;2023-12-07T00:10:52;83.63;;;20.40;;
16504;SDS011;8365;51.030;4.696;2023-12-07T00:13:23;100.97;;;20.67;;
16504;SDS011;8365;51.030;4.696;2023-12-07T00:15:53;44.23;;;18.20;;
16504;SDS011;8365;51.030;4.696;2023-12-07T00:18:24;108.47;;;21.77;;
16504;SDS011;8365;51.030;4.696;2023-12-07T00:20:54;58.13;;;17.60;;
16504;SDS011;8365;51.030;4.696;2023-12-07T00:23:25;79.87;;;18.73;;
16504;SDS011;8365;51.030;4.696;2023-12-07T00:25:55;72.20;;;19.13;;
16504;SDS011;8365;51.030;4.696;2023-12-07T00:28:25;41.80;;;17.30;;
16504;SDS011;8365;51.030;4.696;2023-12-07T00:30:56;54.10;;;17.70;;
16504;SDS011;8365;51.030;4.696;2023-12-07T00:33:27;54.67;;;18.63;;
16504;SDS011;8365;51.030;4.696;2023-12-07T00:35:57;53.83;;;16.67;;
16504;SDS011;8365;51.030;4.696;2023-12-07T00:38:28;72.93;;;19.33;;
16504;SDS011;8365;51.030;4.696;2023-12-07T00:40:58;84.90;;;18.60;;
16504;SDS011;8365;51.030;4.696;2023-12-07T00:43:28;64.90;;;18.43;;
16504;SDS011;8365;51.030;4.696;2023-12-07T00:45:59;51.17;;;18.67;;
16504;SDS011;8365;51.030;4.696;2023-12-07T00:48:30;71.47;;;19.63;;
16504;SDS011;8365;51.030;4.696;2023-12-07T00:51:00;44.30;;;18.17;;
16504;SDS011;8365;51.030;4.696;2023-12-07T00:53:31;62.90;;;18.57;;
16504;SDS011;8365;51.030;4.696;2023-12-07T00:56:02;50.80;;;18.30;;
16504;SDS011;8365;51.030;4.696;2023-12-07T00:58:33;47.53;;;19.37;;
16504;SDS011;8365;51.030;4.696;2023-12-07T01:01:04;48.77;;;19.57;;
16504;SDS011;8365;51.030;4.696;2023-12-07T01:03:34;60.70;;;19.93;;
16504;SDS011;8365;51.030;4.696;2023-12-07T01:06:05;66.83;;;19.97;;
16504;SDS011;8365;51.030;4.696;2023-12-07T01:08:36;38.07;;;17.63;;
16504;SDS011;8365;51.030;4.696;2023-12-07T01:11:06;43.47;;;18.77;;
16504;SDS011;8365;51.030;4.696;2023-12-07T01:13:37;50.63;;;20.17;;
16504;SDS011;8365;51.030;4.696;2023-12-07T01:16:07;45.97;;;19.73;;
16504;SDS011;8365;51.030;4.696;2023-12-07T01:18:38;56.23;;;19.87;;
16504;SDS011;8365;51.030;4.696;2023-12-07T01:21:08;50.33;;;21.03;;
16504;SDS011;8365;51.030;4.696;2023-12-07T01:23:39;44.90;;;20.37;;
16504;SDS011;8365;51.030;4.696;2023-12-07T01:26:09;47.70;;;21.77;;
16504;SDS011;8365;51.030;4.696;2023-12-07T01:28:40;46.03;;;20.53;;
16504;SDS011;8365;51.030;4.696;2023-12-07T01:31:10;56.37;;;22.90;;
16504;SDS011;8365;51.030;4.696;2023-12-07T01:33:40;49.40;;;19.93;;
16504;SDS011;8365;51.030;4.696;2023-12-07T01:36:13;46.70;;;20.53;;
16504;SDS011;8365;51.030;4.696;2023-12-07T01:38:44;60.03;;;21.77;;
16504;SDS011;8365;51.030;4.696;2023-12-07T01:41:14;64.17;;;22.00;;
16504;SDS011;8365;51.030;4.696;2023-12-07T01:43:48;148.53;;;26.27;;
16504;SDS011;8365;51.030;4.696;2023-12-07T01:46:18;63.63;;;21.03;;
16504;SDS011;8365;51.030;4.696;2023-12-07T01:48:49;62.63;;;23.07;;
16504;SDS011;8365;51.030;4.696;2023-12-07T01:51:20;54.67;;;22.80;;
16504;SDS011;8365;51.030;4.696;2023-12-07T01:53:52;45.33;;;21.80;;
16504;SDS011;8365;51.030;4.696;2023-12-07T01:56:26;48.97;;;21.03;;
16504;SDS011;8365;51.030;4.696;2023-12-07T01:58:59;47.70;;;21.67;;
16504;SDS011;8365;51.030;4.696;2023-12-07T02:01:30;47.47;;;20.07;;
16504;SDS011;8365;51.030;4.696;2023-12-07T02:04:00;43.80;;;19.83;;
16504;SDS011;8365;51.030;4.696;2023-12-07T02:06:31;51.63;;;20.90;;
16504;SDS011;8365;51.030;4.696;2023-12-07T02:09:02;47.87;;;19.37;;
16504;SDS011;8365;51.030;4.696;2023-12-07T02:11:35;45.90;;;20.83;;
16504;SDS011;8365;51.030;4.696;2023-12-07T02:14:06;45.87;;;19.83;;
16504;SDS011;8365;51.030;4.696;2023-12-07T02:21:47;43.90;;;20.87;;
16504;SDS011;8365;51.030;4.696;2023-12-07T02:24:22;46.30;;;21.40;;
16504;SDS011;8365;51.030;4.696;2023-12-07T02:26:57;45.07;;;19.73;;
16504;SDS011;8365;51.030;4.696;2023-12-07T02:29:27;42.43;;;19.03;;
16504;SDS011;8365;51.030;4.696;2023-12-07T02:31:58;44.13;;;21.03;;
16504;SDS011;8365;51.030;4.696;2023-12-07T02:34:28;41.80;;;20.77;;
16504;SDS011;8365;51.030;4.696;2023-12-07T02:36:59;43.63;;;21.63;;
16504;SDS011;8365;51.030;4.696;2023-12-07T02:39:31;41.73;;;20.43;;
16504;SDS011;8365;51.030;4.696;2023-12-07T02:42:02;44.13;;;21.87;;
16504;SDS011;8365;51.030;4.696;2023-12-07T02:44:33;41.67;;;20.63;;
16504;SDS011;8365;51.030;4.696;2023-12-07T02:47:04;43.50;;;20.10;;
16504;SDS011;8365;51.030;4.696;2023-12-07T02:49:35;39.43;;;18.97;;
16504;SDS011;8365;51.030;4.696;2023-12-07T02:52:06;39.27;;;20.03;;
16504;SDS011;8365;51.030;4.696;2023-12-07T02:54:39;42.90;;;20.47;;
16504;SDS011;8365;51.030;4.696;2023-12-07T02:57:12;43.20;;;20.53;;
16504;SDS011;8365;51.030;4.696;2023-12-07T02:59:44;41.23;;;20.20;;
16504;SDS011;8365;51.030;4.696;2023-12-07T03:02:15;48.77;;;22.73;;
16504;SDS011;8365;51.030;4.696;2023-12-07T03:04:45;45.27;;;20.77;;
16504;SDS011;8365;51.030;4.696;2023-12-07T03:07:16;46.50;;;21.90;;
16504;SDS011;8365;51.030;4.696;2023-12-07T03:09:46;44.43;;;20.10;;
16504;SDS011;8365;51.030;4.696;2023-12-07T03:12:17;44.77;;;21.60;;
16504;SDS011;8365;51.030;4.696;2023-12-07T03:14:47;48.67;;;22.87;;
16504;SDS011;8365;51.030;4.696;2023-12-07T03:17:20;48.57;;;22.47;;
16504;SDS011;8365;51.030;4.696;2023-12-07T03:19:51;49.67;;;24.00;;
16504;SDS011;8365;51.030;4.696;2023-12-07T03:22:21;57.90;;;26.43;;
16504;SDS011;8365;51.030;4.696;2023-12-07T03:24:52;53.67;;;25.07;;
16504;SDS011;8365;51.030;4.696;2023-12-07T03:27:22;54.17;;;25.23;;
16504;SDS011;8365;51.030;4.696;2023-12-07T03:29:53;49.23;;;24.13;;
16504;SDS011;8365;51.030;4.696;2023-12-07T03:32:23;54.03;;;25.43;;
16504;SDS011;8365;51.030;4.696;2023-12-07T03:34:54;48.97;;;25.03;;
16504;SDS011;8365;51.030;4.696;2023-12-07T03:37:27;50.33;;;24.53;;
16504;SDS011;8365;51.030;4.696;2023-12-07T03:39:57;45.23;;;22.80;;
16504;SDS011;8365;51.030;4.696;2023-12-07T03:42:28;45.80;;;22.97;;
16504;SDS011;8365;51.030;4.696;2023-12-07T03:44:58;43.50;;;24.30;;
16504;SDS011;8365;51.030;4.696;2023-12-07T03:47:29;44.17;;;22.53;;
16504;SDS011;8365;51.030;4.696;2023-12-07T03:49:59;44.80;;;23.27;;
16504;SDS011;8365;51.030;4.696;2023-12-07T03:52:29;45.63;;;22.47;;
16504;SDS011;8365;51.030;4.696;2023-12-07T03:55:00;40.93;;;21.93;;
16504;SDS011;8365;51.030;4.696;2023-12-07T03:57:31;41.27;;;22.53;;
16504;SDS011;8365;51.030;4.696;2023-12-07T04:00:01;39.07;;;21.73;;
16504;SDS011;8365;51.030;4.696;2023-12-07T04:02:34;43.23;;;22.40;;
16504;SDS011;8365;51.030;4.696;2023-12-07T04:05:05;43.57;;;23.00;;
16504;SDS011;8365;51.030;4.696;2023-12-07T04:07:35;40.33;;;21.87;;
16504;SDS011;8365;51.030;4.696;2023-12-07T04:10:06;40.10;;;21.27;;
16504;SDS011;8365;51.030;4.696;2023-12-07T04:12:37;39.10;;;21.53;;
16504;SDS011;8365;51.030;4.696;2023-12-07T04:15:07;43.90;;;21.77;;
16504;SDS011;8365;51.030;4.696;2023-12-07T04:17:39;33.67;;;19.13;;
16504;SDS011;8365;51.030;4.696;2023-12-07T04:20:10;29.67;;;18.97;;
16504;SDS011;8365;51.030;4.696;2023-12-07T04:22:41;33.00;;;20.13;;
16504;SDS011;8365;51.030;4.696;2023-12-07T04:25:11;34.73;;;19.07;;
16504;SDS011;8365;51.030;4.696;2023-12-07T04:27:42;38.20;;;22.33;;
16504;SDS011;8365;51.030;4.696;2023-12-07T04:30:12;36.20;;;19.60;;
16504;SDS011;8365;51.030;4.696;2023-12-07T04:32:43;33.90;;;20.43;;
16504;SDS011;8365;51.030;4.696;2023-12-07T04:35:14;37.13;;;20.73;;
16504;SDS011;8365;51.030;4.696;2023-12-07T04:37:44;38.63;;;19.83;;
16504;SDS011;8365;51.030;4.696;2023-12-07T04:40:14;35.43;;;19.70;;
16504;SDS011;8365;51.030;4.696;2023-12-07T04:42:45;36.73;;;20.20;;
16504;SDS011;8365;51.030;4.696;2023-12-07T04:45:16;35.13;;;20.37;;
16504;SDS011;8365;51.030;4.696;2023-12-07T04:47:48;29.87;;;18.70;;
16504;SDS011;8365;51.030;4.696;2023-12-07T04:50:19;28.23;;;17.87;;
16504;SDS011;8365;51.030;4.696;2023-12-07T04:52:49;32.03;;;19.27;;
16504;SDS011;8365;51.030;4.696;2023-12-07T04:55:20;31.10;;;18.43;;
16504;SDS011;8365;51.030;4.696;2023-12-07T04:57:50;33.93;;;18.93;;
16504;SDS011;8365;51.030;4.696;2023-12-07T05:00:21;28.67;;;17.83;;
16504;SDS011;8365;51.030;4.696;2023-12-07T05:02:51;30.03;;;18.60;;
16504;SDS011;8365;51.030;4.696;2023-12-07T05:05:22;30.37;;;18.77;;
16504;SDS011;8365;51.030;4.696;2023-12-07T05:07:54;28.53;;;18.63;;
16504;SDS011;8365;51.030;4.696;2023-12-07T05:10:24;31.67;;;18.70;;
16504;SDS011;8365;51.030;4.696;2023-12-07T05:12:55;31.50;;;18.90;;
16504;SDS011;8365;51.030;4.696;2023-12-07T05:15:27;28.07;;;17.50;;
16504;SDS011;8365;51.030;4.696;2023-12-07T05:17:57;27.03;;;18.87;;
16504;SDS011;8365;51.030;4.696;2023-12-07T05:20:28;32.70;;;19.40;;
16504;SDS011;8365;51.030;4.696;2023-12-07T05:22:59;30.20;;;18.93;;
16504;SDS011;8365;51.030;4.696;2023-12-07T05:25:29;31.33;;;20.43;;
16504;SDS011;8365;51.030;4.696;2023-12-07T05:28:00;32.83;;;21.60;;
16504;SDS011;8365;51.030;4.696;2023-12-07T05:30:30;32.50;;;20.37;;
16504;SDS011;8365;51.030;4.696;2023-12-07T05:33:01;31.07;;;20.30;;
16504;SDS011;8365;51.030;4.696;2023-12-07T05:35:31;34.43;;;21.13;;
16504;SDS011;8365;51.030;4.696;2023-12-07T05:38:04;32.93;;;20.87;;
16504;SDS011;8365;51.030;4.696;2023-12-07T05:40:35;32.10;;;20.13;;
16504;SDS011;8365;51.030;4.696;2023-12-07T05:43:05;31.93;;;20.80;;
16504;SDS011;8365;51.030;4.696;2023-12-07T05:45:36;29.40;;;19.20;;
16504;SDS011;8365;51.030;4.696;2023-12-07T05:48:06;35.57;;;21.83;;
16504;SDS011;8365;51.030;4.696;2023-12-07T05:50:37;31.17;;;19.90;;
16504;SDS011;8365;51.030;4.696;2023-12-07T05:53:09;30.33;;;19.63;;
16504;SDS011;8365;51.030;4.696;2023-12-07T05:55:40;27.40;;;16.80;;
16504;SDS011;8365;51.030;4.696;2023-12-07T05:58:10;28.73;;;16.83;;
16504;SDS011;8365;51.030;4.696;2023-12-07T06:00:41;26.07;;;16.20;;
16504;SDS011;8365;51.030;4.696;2023-12-07T06:03:13;24.40;;;16.57;;
16504;SDS011;8365;51.030;4.696;2023-12-07T06:05:45;24.70;;;15.40;;
16504;SDS011;8365;51.030;4.696;2023-12-07T06:08:16;25.03;;;17.40;;
16504;SDS011;8365;51.030;4.696;2023-12-07T06:10:47;27.33;;;16.77;;
16504;SDS011;8365;51.030;4.696;2023-12-07T06:13:18;21.50;;;14.63;;
16504;SDS011;8365;51.030;4.696;2023-12-07T06:15:48;22.93;;;15.27;;
16504;SDS011;8365;51.030;4.696;2023-12-07T06:18:19;21.37;;;14.27;;
16504;SDS011;8365;51.030;4.696;2023-12-07T06:20:49;22.27;;;14.63;;
16504;SDS011;8365;51.030;4.696;2023-12-07T06:23:20;20.60;;;14.73;;
16504;SDS011;8365;51.030;4.696;2023-12-07T06:25:50;20.97;;;14.53;;
16504;SDS011;8365;51.030;4.696;2023-12-07T06:28:23;20.77;;;14.17;;
16504;SDS011;8365;51.030;4.696;2023-12-07T06:30:54;21.97;;;14.90;;
16504;SDS011;8365;51.030;4.696;2023-12-07T06:33:24;19.83;;;13.97;;
16504;SDS011;8365;51.030;4.696;2023-12-07T06:35:54;23.27;;;14.73;;
16504;SDS011;8365;51.030;4.696;2023-12-07T06:38:25;24.30;;;14.67;;
16504;SDS011;8365;51.030;4.696;2023-12-07T06:40:55;19.60;;;14.07;;
16504;SDS011;8365;51.030;4.696;2023-12-07T06:43:26;21.23;;;14.00;;
16504;SDS011;8365;51.030;4.696;2023-12-07T06:45:56;21.97;;;14.47;;
16504;SDS011;8365;51.030;4.696;2023-12-07T06:48:27;21.80;;;14.57;;
16504;SDS011;8365;51.030;4.696;2023-12-07T06:50:57;24.10;;;14.20;;
16504;SDS011;8365;51.030;4.696;2023-12-07T06:53:27;22.83;;;14.80;;
16504;SDS011;8365;51.030;4.696;2023-12-07T06:55:58;20.33;;;14.37;;
16504;SDS011;8365;51.030;4.696;2023-12-07T06:58:28;19.67;;;13.87;;
16504;SDS011;8365;51.030;4.696;2023-12-07T07:00:59;21.40;;;14.17;;
16504;SDS011;8365;51.030;4.696;2023-12-07T07:03:30;20.40;;;13.77;;
16504;SDS011;8365;51.030;4.696;2023-12-07T07:06:00;19.20;;;13.63;;
16504;SDS011;8365;51.030;4.696;2023-12-07T07:08:31;22.63;;;15.60;;
16504;SDS011;8365;51.030;4.696;2023-12-07T07:11:01;22.03;;;15.63;;
16504;SDS011;8365;51.030;4.696;2023-12-07T07:13:33;21.00;;;14.63;;
16504;SDS011;8365;51.030;4.696;2023-12-07T07:16:05;23.47;;;14.97;;
16504;SDS011;8365;51.030;4.696;2023-12-07T07:18:37;22.23;;;15.40;;
16504;SDS011;8365;51.030;4.696;2023-12-07T07:21:08;24.57;;;13.73;;
16504;SDS011;8365;51.030;4.696;2023-12-07T07:23:39;18.43;;;13.23;;
16504;SDS011;8365;51.030;4.696;2023-12-07T07:26:09;21.57;;;13.87;;
16504;SDS011;8365;51.030;4.696;2023-12-07T07:28:40;21.70;;;14.77;;
16504;SDS011;8365;51.030;4.696;2023-12-07T07:31:10;19.93;;;13.57;;
16504;SDS011;8365;51.030;4.696;2023-12-07T07:33:40;22.47;;;15.60;;
16504;SDS011;8365;51.030;4.696;2023-12-07T07:36:11;20.63;;;14.80;;
16504;SDS011;8365;51.030;4.696;2023-12-07T07:38:43;22.87;;;14.50;;
16504;SDS011;8365;51.030;4.696;2023-12-07T07:41:16;22.07;;;14.50;;
16504;SDS011;8365;51.030;4.696;2023-12-07T07:43:46;21.53;;;14.07;;
16504;SDS011;8365;51.030;4.696;2023-12-07T07:46:19;25.90;;;15.03;;
16504;SDS011;8365;51.030;4.696;2023-12-07T07:48:50;23.83;;;17.00;;
16504;SDS011;8365;51.030;4.696;2023-12-07T07:51:20;26.97;;;17.83;;
16504;SDS011;8365;51.030;4.696;2023-12-07T07:53:51;25.17;;;17.17;;
16504;SDS011;8365;51.030;4.696;2023-12-07T07:56:21;21.30;;;14.60;;
16504;SDS011;8365;51.030;4.696;2023-12-07T07:58:54;23.70;;;15.67;;
16504;SDS011;8365;51.030;4.696;2023-12-07T08:01:25;21.57;;;14.93;;
16504;SDS011;8365;51.030;4.696;2023-12-07T08:03:55;22.40;;;14.93;;
16504;SDS011;8365;51.030;4.696;2023-12-07T08:06:30;23.00;;;15.70;;
16504;SDS011;8365;51.030;4.696;2023-12-07T08:09:01;24.60;;;15.50;;
16504;SDS011;8365;51.030;4.696;2023-12-07T08:11:31;22.47;;;14.70;;
16504;SDS011;8365;51.030;4.696;2023-12-07T08:14:03;23.63;;;15.50;;
16504;SDS011;8365;51.030;4.696;2023-12-07T08:16:33;24.03;;;14.63;;
16504;SDS011;8365;51.030;4.696;2023-12-07T08:19:04;23.37;;;14.70;;
16504;SDS011;8365;51.030;4.696;2023-12-07T08:21:34;20.93;;;15.00;;
16504;SDS011;8365;51.030;4.696;2023-12-07T08:24:05;24.40;;;15.37;;
16504;SDS011;8365;51.030;4.696;2023-12-07T08:26:35;25.47;;;15.83;;
16504;SDS011;8365;51.030;4.696;2023-12-07T08:29:06;23.70;;;15.17;;
16504;SDS011;8365;51.030;4.696;2023-12-07T08:31:36;27.83;;;16.43;;
16504;SDS011;8365;51.030;4.696;2023-12-07T08:34:07;24.63;;;16.00;;
16504;SDS011;8365;51.030;4.696;2023-12-07T08:36:37;23.97;;;16.87;;
16504;SDS011;8365;51.030;4.696;2023-12-07T08:39:08;22.20;;;15.70;;
16504;SDS011;8365;51.030;4.696;2023-12-07T08:41:39;24.20;;;15.33;;
16504;SDS011;8365;51.030;4.696;2023-12-07T08:44:10;21.67;;;15.50;;
16504;SDS011;8365;51.030;4.696;2023-12-07T08:46:41;19.27;;;14.90;;
16504;SDS011;8365;51.030;4.696;2023-12-07T08:49:17;22.10;;;15.47;;
16504;SDS011;8365;51.030;4.696;2023-12-07T08:51:48;20.67;;;14.23;;
16504;SDS011;8365;51.030;4.696;2023-12-07T08:54:20;20.20;;;13.97;;
16504;SDS011;8365;51.030;4.696;2023-12-07T08:56:51;21.47;;;14.33;;
16504;SDS011;8365;51.030;4.696;2023-12-07T08:59:24;21.30;;;14.07;;
16504;SDS011;8365;51.030;4.696;2023-12-07T09:01:55;21.63;;;13.80;;
16504;SDS011;8365;51.030;4.696;2023-12-07T09:04:25;22.43;;;14.83;;
16504;SDS011;8365;51.030;4.696;2023-12-07T09:06:57;25.53;;;15.53;;
16504;SDS011;8365;51.030;4.696;2023-12-07T09:09:27;22.67;;;15.43;;
16504;SDS011;8365;51.030;4.696;2023-12-07T09:11:57;22.07;;;14.77;;
16504;SDS011;8365;51.030;4.696;2023-12-07T09:14:28;20.77;;;12.87;;
16504;SDS011;8365;51.030;4.696;2023-12-07T09:16:59;20.07;;;13.90;;
16504;SDS011;8365;51.030;4.696;2023-12-07T09:19:30;17.47;;;13.10;;
16504;SDS011;8365;51.030;4.696;2023-12-07T09:22:00;19.60;;;12.90;;
16504;SDS011;8365;51.030;4.696;2023-12-07T09:24:31;16.07;;;12.20;;
16504;SDS011;8365;51.030;4.696;2023-12-07T09:27:01;15.20;;;10.87;;
16504;SDS011;8365;51.030;4.696;2023-12-07T09:29:32;16.30;;;12.20;;
16504;SDS011;8365;51.030;4.696;2023-12-07T09:32:02;15.57;;;11.37;;
16504;SDS011;8365;51.030;4.696;2023-12-07T09:34:33;16.77;;;11.43;;
16504;SDS011;8365;51.030;4.696;2023-12-07T09:37:07;15.57;;;12.30;;
16504;SDS011;8365;51.030;4.696;2023-12-07T09:39:38;21.57;;;12.77;;
16504;SDS011;8365;51.030;4.696;2023-12-07T09:42:09;17.33;;;12.47;;
16504;SDS011;8365;51.030;4.696;2023-12-07T09:44:39;21.97;;;13.40;;
16504;SDS011;8365;51.030;4.696;2023-12-07T09:47:10;20.13;;;13.73;;
16504;SDS011;8365;51.030;4.696;2023-12-07T09:49:41;21.70;;;13.93;;
16504;SDS011;8365;51.030;4.696;2023-12-07T09:52:12;20.60;;;15.20;;
16504;SDS011;8365;51.030;4.696;2023-12-07T09:54:44;17.57;;;12.27;;
16504;SDS011;8365;51.030;4.696;2023-12-07T09:57:15;18.73;;;13.23;;
16504;SDS011;8365;51.030;4.696;2023-12-07T09:59:46;18.53;;;12.10;;
16504;SDS011;8365;51.030;4.696;2023-12-07T10:02:16;17.97;;;13.13;;
16504;SDS011;8365;51.030;4.696;2023-12-07T10:05:03;18.93;;;12.60;;
16504;SDS011;8365;51.030;4.696;2023-12-07T10:07:34;17.20;;;11.50;;
16504;SDS011;8365;51.030;4.696;2023-12-07T10:10:07;16.73;;;11.87;;
16504;SDS011;8365;51.030;4.696;2023-12-07T10:13:14;14.73;;;11.80;;
16504;SDS011;8365;51.030;4.696;2023-12-07T10:15:38;16.47;;;11.63;;
16504;SDS011;8365;51.030;4.696;2023-12-07T10:18:08;15.90;;;12.33;;
16504;SDS011;8365;51.030;4.696;2023-12-07T10:20:44;17.63;;;11.53;;
16504;SDS011;8365;51.030;4.696;2023-12-07T10:23:15;13.53;;;10.77;;
16504;SDS011;8365;51.030;4.696;2023-12-07T10:25:47;13.83;;;11.30;;
16504;SDS011;8365;51.030;4.696;2023-12-07T10:28:18;14.23;;;10.90;;
16504;SDS011;8365;51.030;4.696;2023-12-07T10:30:49;14.03;;;10.73;;
16504;SDS011;8365;51.030;4.696;2023-12-07T10:33:20;15.20;;;11.23;;
16504;SDS011;8365;51.030;4.696;2023-12-07T10:35:51;14.87;;;10.73;;
16504;SDS011;8365;51.030;4.696;2023-12-07T10:38:24;14.53;;;10.80;;
16504;SDS011;8365;51.030;4.696;2023-12-07T10:40:59;13.57;;;10.53;;
16504;SDS011;8365;51.030;4.696;2023-12-07T10:43:37;16.93;;;10.83;;
16504;SDS011;8365;51.030;4.696;2023-12-07T10:46:13;13.00;;;10.57;;
16504;SDS011;8365;51.030;4.696;2023-12-07T10:48:48;12.83;;;10.33;;
16504;SDS011;8365;51.030;4.696;2023-12-07T10:51:31;15.50;;;10.00;;
16504;SDS011;8365;51.030;4.696;2023-12-07T10:54:07;11.63;;;9.67;;
16504;SDS011;8365;51.030;4.696;2023-12-07T10:56:45;12.30;;;10.13;;
16504;SDS011;8365;51.030;4.696;2023-12-07T10:59:19;13.90;;;9.70;;
16504;SDS011;8365;51.030;4.696;2023-12-07T11:01:51;14.93;;;10.23;;
16504;SDS011;8365;51.030;4.696;2023-12-07T11:04:22;12.40;;;10.30;;
16504;SDS011;8365;51.030;4.696;2023-12-07T11:06:53;13.97;;;10.20;;
16504;SDS011;8365;51.030;4.696;2023-12-07T11:09:28;10.57;;;9.10;;
16504;SDS011;8365;51.030;4.696;2023-12-07T11:12:07;13.20;;;10.17;;
16504;SDS011;8365;51.030;4.696;2023-12-07T11:14:43;11.87;;;9.73;;
16504;SDS011;8365;51.030;4.696;2023-12-07T11:17:15;12.60;;;9.60;;
16504;SDS011;8365;51.030;4.696;2023-12-07T11:19:48;12.67;;;9.90;;
16504;SDS011;8365;51.030;4.696;2023-12-07T11:22:19;14.20;;;10.33;;
16504;SDS011;8365;51.030;4.696;2023-12-07T11:24:56;12.73;;;10.13;;
16504;SDS011;8365;51.030;4.696;2023-12-07T11:27:31;13.07;;;9.70;;
16504;SDS011;8365;51.030;4.696;2023-12-07T11:30:02;12.63;;;9.20;;
16504;SDS011;8365;51.030;4.696;2023-12-07T11:32:33;12.90;;;10.57;;
16504;SDS011;8365;51.030;4.696;2023-12-07T11:35:04;14.73;;;10.43;;
16504;SDS011;8365;51.030;4.696;2023-12-07T11:37:59;12.80;;;8.97;;
16504;SDS011;8365;51.030;4.696;2023-12-07T11:40:40;11.03;;;9.80;;
16504;SDS011;8365;51.030;4.696;2023-12-07T11:43:17;12.00;;;9.53;;
16504;SDS011;8365;51.030;4.696;2023-12-07T11:46:09;12.87;;;9.80;;
16504;SDS011;8365;51.030;4.696;2023-12-07T11:48:45;13.60;;;10.27;;
16504;SDS011;8365;51.030;4.696;2023-12-07T11:51:17;13.30;;;10.27;;
16504;SDS011;8365;51.030;4.696;2023-12-07T11:53:48;11.20;;;9.70;;
16504;SDS011;8365;51.030;4.696;2023-12-07T11:56:20;18.17;;;12.53;;
16504;SDS011;8365;51.030;4.696;2023-12-07T11:58:51;22.07;;;9.43;;
16504;SDS011;8365;51.030;4.696;2023-12-07T12:01:25;13.70;;;10.40;;
16504;SDS011;8365;51.030;4.696;2023-12-07T12:03:57;15.47;;;11.43;;
16504;SDS011;8365;51.030;4.696;2023-12-07T12:06:29;14.20;;;10.07;;
16504;SDS011;8365;51.030;4.696;2023-12-07T12:09:00;18.53;;;13.77;;
16504;SDS011;8365;51.030;4.696;2023-12-07T12:11:33;16.87;;;12.73;;
16504;SDS011;8365;51.030;4.696;2023-12-07T12:14:04;17.70;;;12.50;;
16504;SDS011;8365;51.030;4.696;2023-12-07T12:16:35;18.80;;;11.27;;
16504;SDS011;8365;51.030;4.696;2023-12-07T12:19:05;23.37;;;20.10;;
16504;SDS011;8365;51.030;4.696;2023-12-07T12:21:36;17.00;;;11.50;;
16504;SDS011;8365;51.030;4.696;2023-12-07T12:24:09;16.43;;;11.67;;
16504;SDS011;8365;51.030;4.696;2023-12-07T12:26:43;13.60;;;11.63;;
16504;SDS011;8365;51.030;4.696;2023-12-07T12:29:14;13.37;;;11.77;;
16504;SDS011;8365;51.030;4.696;2023-12-07T12:31:45;14.50;;;13.00;;
16504;SDS011;8365;51.030;4.696;2023-12-07T12:34:16;14.73;;;10.67;;
16504;SDS011;8365;51.030;4.696;2023-12-07T12:36:47;13.83;;;12.03;;
16504;SDS011;8365;51.030;4.696;2023-12-07T12:39:17;15.37;;;11.70;;
16504;SDS011;8365;51.030;4.696;2023-12-07T12:41:49;14.63;;;12.07;;
16504;SDS011;8365;51.030;4.696;2023-12-07T12:44:24;15.40;;;11.10;;
16504;SDS011;8365;51.030;4.696;2023-12-07T12:46:55;12.57;;;9.57;;
16504;SDS011;8365;51.030;4.696;2023-12-07T12:49:34;14.33;;;11.37;;
16504;SDS011;8365;51.030;4.696;2023-12-07T12:52:09;12.00;;;9.20;;
16504;SDS011;8365;51.030;4.696;2023-12-07T12:54:42;14.10;;;9.80;;
16504;SDS011;8365;51.030;4.696;2023-12-07T12:57:13;15.50;;;11.33;;
16504;SDS011;8365;51.030;4.696;2023-12-07T12:59:44;14.97;;;10.40;;
16504;SDS011;8365;51.030;4.696;2023-12-07T13:02:15;13.97;;;12.37;;
16504;SDS011;8365;51.030;4.696;2023-12-07T13:04:46;12.13;;;10.17;;
16504;SDS011;8365;51.030;4.696;2023-12-07T13:07:16;14.77;;;12.07;;
16504;SDS011;8365;51.030;4.696;2023-12-07T13:09:47;15.13;;;11.27;;
16504;SDS011;8365;51.030;4.696;2023-12-07T13:12:17;11.33;;;9.93;;
16504;SDS011;8365;51.030;4.696;2023-12-07T13:14:48;13.47;;;10.20;;
16504;SDS011;8365;51.030;4.696;2023-12-07T13:17:19;11.57;;;9.73;;
16504;SDS011;8365;51.030;4.696;2023-12-07T13:19:49;17.33;;;10.83;;
16504;SDS011;8365;51.030;4.696;2023-12-07T13:22:20;15.67;;;11.07;;
16504;SDS011;8365;51.030;4.696;2023-12-07T13:24:50;13.87;;;10.33;;
16504;SDS011;8365;51.030;4.696;2023-12-07T13:27:20;21.70;;;10.37;;
16504;SDS011;8365;51.030;4.696;2023-12-07T13:29:51;15.17;;;10.00;;
16504;SDS011;8365;51.030;4.696;2023-12-07T13:32:21;12.47;;;10.10;;
16504;SDS011;8365;51.030;4.696;2023-12-07T13:34:53;15.07;;;11.13;;
16504;SDS011;8365;51.030;4.696;2023-12-07T13:37:24;14.30;;;11.10;;
16504;SDS011;8365;51.030;4.696;2023-12-07T13:39:54;15.27;;;11.67;;
16504;SDS011;8365;51.030;4.696;2023-12-07T13:42:27;13.47;;;9.30;;
16504;SDS011;8365;51.030;4.696;2023-12-07T13:44:58;14.27;;;9.30;;
16504;SDS011;8365;51.030;4.696;2023-12-07T13:47:30;13.23;;;9.50;;
16504;SDS011;8365;51.030;4.696;2023-12-07T13:50:06;12.20;;;10.43;;
16504;SDS011;8365;51.030;4.696;2023-12-07T13:52:40;12.93;;;9.63;;
16504;SDS011;8365;51.030;4.696;2023-12-07T13:55:12;11.10;;;9.27;;
16504;SDS011;8365;51.030;4.696;2023-12-07T13:57:42;14.47;;;10.80;;
16504;SDS011;8365;51.030;4.696;2023-12-07T14:00:13;12.17;;;9.73;;
16504;SDS011;8365;51.030;4.696;2023-12-07T14:02:44;15.97;;;9.63;;
16504;SDS011;8365;51.030;4.696;2023-12-07T14:05:14;13.33;;;9.43;;
16504;SDS011;8365;51.030;4.696;2023-12-07T14:07:46;16.00;;;9.73;;
16504;SDS011;8365;51.030;4.696;2023-12-07T14:10:16;13.00;;;10.10;;
16504;SDS011;8365;51.030;4.696;2023-12-07T14:12:47;12.50;;;10.80;;
16504;SDS011;8365;51.030;4.696;2023-12-07T14:15:17;12.43;;;11.13;;
16504;SDS011;8365;51.030;4.696;2023-12-07T14:17:48;12.30;;;9.30;;
16504;SDS011;8365;51.030;4.696;2023-12-07T14:20:18;11.90;;;8.67;;
16504;SDS011;8365;51.030;4.696;2023-12-07T14:22:51;11.07;;;8.80;;
16504;SDS011;8365;51.030;4.696;2023-12-07T14:25:21;12.77;;;9.30;;
16504;SDS011;8365;51.030;4.696;2023-12-07T14:27:52;14.03;;;9.23;;
16504;SDS011;8365;51.030;4.696;2023-12-07T14:30:22;82.60;;;15.80;;
16504;SDS011;8365;51.030;4.696;2023-12-07T14:32:52;14.43;;;9.30;;
16504;SDS011;8365;51.030;4.696;2023-12-07T14:35:23;13.40;;;10.83;;
16504;SDS011;8365;51.030;4.696;2023-12-07T14:37:56;12.20;;;8.43;;
16504;SDS011;8365;51.030;4.696;2023-12-07T14:40:27;11.57;;;9.23;;
16504;SDS011;8365;51.030;4.696;2023-12-07T14:42:57;12.73;;;8.93;;
16504;SDS011;8365;51.030;4.696;2023-12-07T14:45:30;12.43;;;8.73;;
16504;SDS011;8365;51.030;4.696;2023-12-07T14:48:00;12.80;;;10.13;;
16504;SDS011;8365;51.030;4.696;2023-12-07T14:50:31;15.30;;;13.73;;
16504;SDS011;8365;51.030;4.696;2023-12-07T14:53:01;13.37;;;11.90;;
16504;SDS011;8365;51.030;4.696;2023-12-07T14:55:35;12.13;;;8.23;;
16504;SDS011;8365;51.030;4.696;2023-12-07T14:58:05;10.67;;;8.60;;
16504;SDS011;8365;51.030;4.696;2023-12-07T15:00:36;9.33;;;7.37;;
16504;SDS011;8365;51.030;4.696;2023-12-07T15:03:07;11.00;;;9.80;;
16504;SDS011;8365;51.030;4.696;2023-12-07T15:05:37;10.90;;;8.77;;